Time;durP1;ratioP1;P1;durP2;ratioP2;P2;SDS_P1;SDS_P2;PMS_P1;PMS_P2;Temp;Humidity;BMP_temperature;BMP_pressure;BME280_temperature;BME280_humidity;BME280_pressure;Samples;Min_cycle;Max_cycle;Signal;HPM_P1;HPM_P2
2020/12/16 00:01:54;;;;;;;34.17;22.38;;;8.30;94.20;;;;;;5012724;28;20024;-86
2020/12/16 00:04:20;;;;;;;31.67;21.85;;;8.30;94.20;;;;;;5013500;28;20030;-87
2020/12/16 00:06:46;;;;;;;35.50;21.70;;;8.30;94.20;;;;;;4995269;28;20353;-85
2020/12/16 00:09:12;;;;;;;36.08;22.05;;;8.30;94.20;;;;;;4996907;28;20192;-85
2020/12/16 00:11:38;;;;;;;34.00;20.52;;;8.20;94.20;;;;;;4995903;28;20109;-86
2020/12/16 00:14:05;;;;;;;33.58;21.70;;;8.20;94.20;;;;;;4996049;28;20026;-86
2020/12/16 00:16:32;;;;;;;31.77;21.05;;;8.30;94.20;;;;;;4995971;28;20053;-86
2020/12/16 00:18:58;;;;;;;30.17;20.63;;;8.30;94.20;;;;;;5013548;28;20030;-86
2020/12/16 00:21:24;;;;;;;34.70;21.77;;;8.20;94.20;;;;;;4997133;28;20018;-86
2020/12/16 00:23:55;;;;;;;38.20;23.45;;;8.20;94.10;;;;;;4995308;28;20114;-88
2020/12/16 00:26:21;;;;;;;;;;;8.20;94.10;;;;;;4997048;28;20539;-86
2020/12/16 00:28:47;;;;;;;33.85;21.88;;;8.20;94.20;;;;;;5014016;28;19984;-87
2020/12/16 00:31:15;;;;;;;38.75;23.52;;;8.20;94.10;;;;;;4996186;28;20037;-86
2020/12/16 00:33:42;;;;;;;36.88;23.50;;;8.20;94.20;;;;;;4995087;28;20092;-86
2020/12/16 00:36:08;;;;;;;37.13;22.92;;;8.20;94.20;;;;;;4980579;28;20040;-87
2020/12/16 00:38:33;;;;;;;37.45;22.65;;;8.20;94.20;;;;;;4996112;28;20453;-86
2020/12/16 00:41:04;;;;;;;33.28;22.88;;;8.20;94.20;;;;;;4996188;28;20084;-87
2020/12/16 00:43:30;;;;;;;40.03;22.45;;;8.20;94.10;;;;;;4982918;28;20030;-86
2020/12/16 00:46:00;;;;;;;38.15;23.83;;;8.20;94.20;;;;;;4995477;28;20018;-88
2020/12/16 00:48:29;;;;;;;34.45;24.15;;;8.10;94.10;;;;;;4981629;28;20089;-86
2020/12/16 00:50:55;;;;;;;30.80;22.92;;;8.10;94.10;;;;;;4976523;28;20465;-86
2020/12/16 00:53:20;;;;;;;34.42;23.25;;;8.10;94.10;;;;;;5016873;28;20084;-86
2020/12/16 00:55:46;;;;;;;33.25;20.77;;;8.10;94.20;;;;;;4976625;28;20053;-87
2020/12/16 00:58:12;;;;;;;33.50;20.23;;;8.00;94.10;;;;;;4995398;28;20380;-87
2020/12/16 01:00:37;;;;;;;34.45;22.35;;;8.00;94.10;;;;;;4995616;28;20121;-88
2020/12/16 01:03:04;;;;;;;31.23;20.40;;;8.00;94.20;;;;;;5012591;28;20026;-88
2020/12/16 01:05:29;;;;;;;34.45;20.58;;;8.10;94.20;;;;;;5013651;28;20034;-87
2020/12/16 01:07:55;;;;;;;39.65;22.17;;;8.10;94.20;;;;;;4994877;28;20383;-87
2020/12/16 01:10:24;;;;;;;32.10;21.10;;;8.10;94.20;;;;;;4995886;28;20435;-86
2020/12/16 01:12:50;;;;;;;37.17;21.65;;;8.10;94.20;;;;;;4995447;28;20030;-87
2020/12/16 01:15:37;;;;;;;;;;;;;;;;;;;;;
2020/12/16 01:18:06;;;;;;;44.83;22.17;;;8.00;94.20;;;;;;4997105;28;20056;-87
2020/12/16 01:20:31;;;;;;;43.40;21.67;;;8.00;94.20;;;;;;4980150;28;20029;-86
2020/12/16 01:22:57;;;;;;;28.77;21.33;;;8.00;94.20;;;;;;4995045;28;20026;-86
2020/12/16 01:25:23;;;;;;;35.38;21.63;;;8.00;94.20;;;;;;4995325;28;20475;-86
2020/12/16 01:27:57;;;;;;;34.13;20.90;;;8.00;94.20;;;;;;4975344;28;20031;-88
2020/12/16 01:30:23;;;;;;;41.40;22.20;;;8.00;94.20;;;;;;4979893;28;20386;-86
2020/12/16 01:32:53;;;;;;;43.42;20.48;;;8.00;94.20;;;;;;4994506;28;20112;-88
2020/12/16 01:35:19;;;;;;;29.33;19.75;;;8.00;94.20;;;;;;4995433;28;20041;-86
2020/12/16 01:37:48;;;;;;;30.95;20.00;;;8.00;94.20;;;;;;5012804;28;20057;-86
2020/12/16 01:40:16;;;;;;;37.17;19.45;;;8.00;94.50;;;;;;5013020;28;20028;-86
2020/12/16 01:42:42;;;;;;;32.72;19.77;;;8.00;94.20;;;;;;4995185;28;20033;-86
2020/12/16 01:45:17;;;;;;;26.60;19.05;;;8.00;94.20;;;;;;5012864;28;20395;-86
2020/12/16 01:47:45;;;;;;;27.25;20.10;;;8.00;94.30;;;;;;4990266;28;20034;-86
2020/12/16 01:50:11;;;;;;;28.85;20.15;;;8.00;94.20;;;;;;4995453;28;20125;-86
2020/12/16 01:52:39;;;;;;;32.13;20.52;;;8.00;94.30;;;;;;4994976;28;20025;-86
2020/12/16 01:55:10;;;;;;;29.08;19.27;;;8.00;94.30;;;;;;4994331;28;20072;-86
2020/12/16 01:57:59;;;;;;;24.33;19.48;;;8.00;94.30;;;;;;4995142;28;20428;-86
2020/12/16 02:00:26;;;;;;;28.00;19.15;;;8.00;94.30;;;;;;4994511;28;20046;-86
2020/12/16 02:02:55;;;;;;;48.03;20.40;;;8.00;94.20;;;;;;4979163;28;20452;-86
2020/12/16 02:05:23;;;;;;;29.45;18.70;;;8.00;94.20;;;;;;4993664;28;20053;-86
2020/12/16 02:07:55;;;;;;;28.27;18.77;;;8.00;94.20;;;;;;4995157;28;20030;-86
2020/12/16 02:10:24;;;;;;;28.70;18.40;;;7.90;94.20;;;;;;4986771;28;20034;-86
2020/12/16 02:12:50;;;;;;;29.23;18.30;;;7.90;94.20;;;;;;5012303;28;20025;-87
2020/12/16 02:15:15;;;;;;;31.02;19.52;;;7.90;94.20;;;;;;4993939;28;20084;-86
2020/12/16 02:17:41;;;;;;;28.05;19.63;;;7.90;94.20;;;;;;4993957;28;20026;-86
2020/12/16 02:20:08;;;;;;;25.50;18.42;;;7.90;94.20;;;;;;4994693;28;20033;-86
2020/12/16 02:22:36;;;;;;;33.42;20.15;;;7.90;94.20;;;;;;5012746;28;20026;-86
2020/12/16 02:25:11;;;;;;;32.05;19.17;;;7.90;94.20;;;;;;5011968;28;20488;-85
2020/12/16 02:27:38;;;;;;;30.30;19.02;;;7.90;94.10;;;;;;4995326;28;20080;-86
2020/12/16 02:30:08;;;;;;;25.77;17.25;;;7.90;94.10;;;;;;4994482;28;20096;-86
2020/12/16 02:32:37;;;;;;;26.10;17.42;;;7.80;94.10;;;;;;5012958;28;20484;-86
2020/12/16 02:35:06;;;;;;;25.38;16.98;;;7.90;94.10;;;;;;4993857;28;20127;-85
2020/12/16 02:37:35;;;;;;;22.23;18.13;;;7.80;94.10;;;;;;5011831;28;20076;-86
2020/12/16 02:40:01;;;;;;;22.45;16.70;;;7.80;94.10;;;;;;4979039;28;20114;-86
2020/12/16 02:42:28;;;;;;;23.65;17.40;;;7.80;94.10;;;;;;4978970;28;20023;-85
2020/12/16 02:44:57;;;;;;;20.58;16.08;;;7.80;94.10;;;;;;4993804;28;20070;-87
2020/12/16 02:47:23;;;;;;;21.40;15.02;;;7.70;94.10;;;;;;5012903;28;20480;-85
2020/12/16 02:49:51;;;;;;;29.80;14.95;;;7.70;94.10;;;;;;4998350;28;20022;-86
2020/12/16 02:52:17;;;;;;;20.05;14.77;;;7.70;94.10;;;;;;4998333;28;20033;-85
2020/12/16 02:54:45;;;;;;;17.92;14.80;;;7.70;94.10;;;;;;4998113;28;20034;-85
2020/12/16 02:57:11;;;;;;;19.83;15.20;;;7.70;94.10;;;;;;4997241;28;20084;-86
2020/12/16 02:59:37;;;;;;;19.38;14.70;;;7.70;94.10;;;;;;4997764;28;20049;-87
2020/12/16 03:02:03;;;;;;;19.25;15.35;;;7.70;94.10;;;;;;4997067;28;20539;-86
2020/12/16 03:04:28;;;;;;;18.27;15.63;;;7.70;94.10;;;;;;4998465;28;20036;-85
2020/12/16 03:06:58;;;;;;;20.65;15.90;;;7.70;94.10;;;;;;4997296;28;20022;-86
2020/12/16 03:09:26;;;;;;;18.80;14.27;;;7.70;94.10;;;;;;4998191;28;20022;-86
2020/12/16 03:11:59;;;;;;;17.88;14.50;;;7.60;94.10;;;;;;4991476;28;20468;-88
2020/12/16 03:14:28;;;;;;;17.63;14.63;;;7.60;94.10;;;;;;5006521;28;20469;-86
2020/12/16 03:16:59;;;;;;;20.30;15.73;;;7.60;94.10;;;;;;4997420;28;20030;-86
2020/12/16 03:19:25;;;;;;;24.38;15.68;;;7.60;94.10;;;;;;4997803;28;20029;-85
2020/12/16 03:21:56;;;;;;;19.83;14.30;;;7.60;94.10;;;;;;5015359;28;20419;-86
2020/12/16 03:24:22;;;;;;;18.83;15.27;;;7.60;94.00;;;;;;4997733;28;20030;-85
2020/12/16 03:26:50;;;;;;;21.98;14.05;;;7.50;94.00;;;;;;5014577;28;20104;-86
2020/12/16 03:29:18;;;;;;;18.58;14.65;;;7.50;94.10;;;;;;4997009;28;20030;-87
2020/12/16 03:31:44;;;;;;;18.00;13.68;;;7.50;94.10;;;;;;4985785;28;20088;-85
2020/12/16 03:34:10;;;;;;;17.55;13.18;;;7.50;94.10;;;;;;4977283;28;20041;-86
2020/12/16 03:36:38;;;;;;;16.80;12.93;;;7.50;94.10;;;;;;4996824;28;20456;-85
2020/12/16 03:39:05;;;;;;;18.75;13.73;;;7.50;94.10;;;;;;4995375;28;20034;-85
2020/12/16 03:41:31;;;;;;;21.75;13.90;;;7.50;94.10;;;;;;4996631;28;20041;-87
2020/12/16 03:43:59;;;;;;;22.92;14.15;;;7.50;94.10;;;;;;5013406;28;20038;-86
2020/12/16 03:46:25;;;;;;;25.25;13.45;;;7.50;94.00;;;;;;4995256;28;20026;-86
2020/12/16 03:48:50;;;;;;;20.27;13.25;;;7.50;94.10;;;;;;4980125;28;20029;-85
2020/12/16 03:51:18;;;;;;;28.15;14.02;;;7.50;94.10;;;;;;4995836;28;20034;-86
2020/12/16 03:53:46;;;;;;;21.63;14.05;;;7.50;94.10;;;;;;5014723;28;20037;-85
2020/12/16 03:56:14;;;;;;;24.73;13.55;;;7.50;94.10;;;;;;4976473;28;20476;-86
2020/12/16 03:58:44;;;;;;;25.90;14.63;;;7.50;94.10;;;;;;4996311;28;20029;-85
2020/12/16 04:01:11;;;;;;;20.30;14.38;;;7.50;94.10;;;;;;5013097;28;20128;-86
2020/12/16 04:03:37;;;;;;;28.65;14.90;;;7.50;94.10;;;;;;4998591;28;20030;-85
2020/12/16 04:06:09;;;;;;;48.75;17.08;;;7.50;94.10;;;;;;4995852;28;20029;-86
2020/12/16 04:08:38;;;;;;;19.85;15.65;;;7.40;94.10;;;;;;5013892;28;20113;-86
2020/12/16 04:11:08;;;;;;;21.98;16.08;;;7.50;94.10;;;;;;4995081;28;20092;-86
2020/12/16 04:13:36;;;;;;;21.97;15.33;;;7.40;94.10;;;;;;4984860;28;20026;-86
2020/12/16 04:16:03;;;;;;;28.35;16.90;;;7.50;94.10;;;;;;4980012;28;20064;-86
2020/12/16 04:18:28;;;;;;;21.25;17.13;;;7.40;94.10;;;;;;4995935;28;20472;-87
2020/12/16 04:20:54;;;;;;;20.27;16.60;;;7.40;94.40;;;;;;4996105;28;20029;-87
2020/12/16 04:23:20;;;;;;;22.15;15.30;;;7.40;94.10;;;;;;5013106;28;20022;-85
2020/12/16 04:25:46;;;;;;;20.65;16.23;;;7.40;94.10;;;;;;4996144;28;20037;-86
2020/12/16 04:28:11;;;;;;;29.50;15.70;;;7.40;94.10;;;;;;4979231;28;20034;-85
2020/12/16 04:30:39;;;;;;;24.73;16.77;;;7.40;94.10;;;;;;4980369;28;20037;-84
2020/12/16 04:33:05;;;;;;;25.33;16.15;;;7.40;94.20;;;;;;4994758;28;20388;-86
2020/12/16 04:35:31;;;;;;;22.10;16.42;;;7.40;94.20;;;;;;4980286;28;20034;-85
2020/12/16 04:37:57;;;;;;;23.02;16.63;;;7.50;94.20;;;;;;4995560;28;20368;-85
2020/12/16 04:40:23;;;;;;;24.63;17.45;;;7.50;94.20;;;;;;5012703;28;20383;-85
2020/12/16 04:43:08;;;;;;;24.88;18.20;;;7.40;94.10;;;;;;4995912;28;20030;-86
2020/12/16 04:45:38;;;;;;;25.50;18.50;;;7.50;94.10;;;;;;4995412;28;20101;-85
2020/12/16 04:48:08;;;;;;;20.92;17.10;;;7.40;94.10;;;;;;4995604;28;20184;-87
2020/12/16 04:50:35;;;;;;;23.50;17.25;;;7.40;94.10;;;;;;5012156;28;20040;-86
2020/12/16 04:53:04;;;;;;;22.27;17.23;;;7.40;94.10;;;;;;5013503;28;20523;-87
2020/12/16 04:55:32;;;;;;;22.77;17.70;;;7.40;94.10;;;;;;4995150;28;20048;-88
2020/12/16 04:58:02;;;;;;;29.63;17.75;;;7.40;94.10;;;;;;5013834;28;20161;-86
2020/12/16 05:00:32;;;;;;;22.98;17.73;;;7.40;94.10;;;;;;4990347;28;20047;-87
2020/12/16 05:03:01;;;;;;;24.42;18.15;;;7.40;94.10;;;;;;4989327;28;20384;-86
2020/12/16 05:05:28;;;;;;;24.90;17.17;;;7.30;94.10;;;;;;4975340;28;20061;-86
2020/12/16 05:07:59;;;;;;;23.23;17.88;;;7.40;94.10;;;;;;5007453;28;20033;-86
2020/12/16 05:10:34;;;;;;;22.90;16.85;;;7.40;94.10;;;;;;5013475;28;20463;-86
2020/12/16 05:13:17;;;;;;;23.02;17.73;;;7.30;94.10;;;;;;4995034;28;20093;-86
2020/12/16 05:15:44;;;;;;;21.52;16.85;;;7.30;94.00;;;;;;4995535;28;20038;-87
2020/12/16 05:18:16;;;;;;;18.98;15.82;;;7.30;94.00;;;;;;4994287;28;20026;-87
2020/12/16 05:20:57;;;;;;;20.77;15.00;;;7.20;94.00;;;;;;4995054;28;20463;-87
2020/12/16 05:23:28;;;;;;;24.08;14.38;;;7.20;94.00;;;;;;4994404;28;20464;-86
2020/12/16 05:26:06;;;;;;;16.10;13.23;;;7.20;94.10;;;;;;4995169;28;20036;-87
2020/12/16 05:28:38;;;;;;;20.02;14.32;;;7.20;94.00;;;;;;4994019;28;20017;-85
2020/12/16 05:31:08;;;;;;;15.73;13.50;;;7.20;94.00;;;;;;4995310;28;20060;-86
2020/12/16 05:34:02;;;;;;;19.00;13.25;;;7.20;94.00;;;;;;5012909;28;20037;-86
2020/12/16 05:36:30;;;;;;;17.15;13.02;;;7.20;94.00;;;;;;4994969;28;20104;-86
2020/12/16 05:39:00;;;;;;;18.88;13.77;;;7.20;94.00;;;;;;4995016;28;20018;-87
2020/12/16 05:41:28;;;;;;;16.13;13.13;;;7.10;93.90;;;;;;5012625;28;20036;-88
2020/12/16 05:44:40;;;;;;;16.50;12.73;;;7.10;93.90;;;;;;5012487;28;20030;-86
2020/12/16 05:47:09;;;;;;;20.43;12.77;;;7.10;93.90;;;;;;5005835;28;20054;-86
2020/12/16 05:49:35;;;;;;;18.83;12.35;;;7.10;93.80;;;;;;4994391;28;20060;-87
2020/12/16 05:52:05;;;;;;;17.52;12.90;;;7.00;93.80;;;;;;5012899;28;20026;-87
2020/12/16 05:54:34;;;;;;;16.67;12.65;;;7.00;93.80;;;;;;4994557;28;20038;-87
2020/12/16 05:57:12;;;;;;;13.75;11.52;;;6.90;93.70;;;;;;5012913;28;20045;-87
2020/12/16 05:59:39;;;;;;;15.25;12.52;;;6.90;93.70;;;;;;4990555;28;20314;-87
2020/12/16 06:02:06;;;;;;;13.50;11.90;;;6.90;93.70;;;;;;4992603;28;20026;-88
2020/12/16 06:04:36;;;;;;;13.05;10.98;;;6.90;93.60;;;;;;4994346;28;20034;-87
2020/12/16 06:07:14;;;;;;;17.17;11.25;;;6.80;93.60;;;;;;4993980;28;20026;-88
2020/12/16 06:09:40;;;;;;;12.40;11.13;;;6.80;93.50;;;;;;4995882;28;20061;-88
2020/12/16 06:12:06;;;;;;;12.25;10.95;;;6.70;93.50;;;;;;4993897;28;20057;-87
2020/12/16 06:14:34;;;;;;;12.60;11.30;;;6.70;93.50;;;;;;4994482;28;20498;-88
2020/12/16 06:17:11;;;;;;;16.95;11.70;;;6.70;93.50;;;;;;4980506;28;20130;-87
2020/12/16 06:19:50;;;;;;;13.40;10.88;;;6.60;93.40;;;;;;5015879;28;20101;-86
2020/12/16 06:22:16;;;;;;;14.68;11.32;;;6.60;93.40;;;;;;4997881;28;20030;-87
2020/12/16 06:24:47;;;;;;;12.60;10.57;;;6.60;93.40;;;;;;5015872;28;20038;-87
2020/12/16 06:27:21;;;;;;;18.20;11.23;;;6.60;93.40;;;;;;4964790;28;20037;-87
2020/12/16 06:29:58;;;;;;;26.17;12.95;;;6.60;93.40;;;;;;4985336;28;20029;-87
2020/12/16 06:32:38;;;;;;;34.63;12.32;;;6.50;93.30;;;;;;4997517;28;20030;-88
2020/12/16 06:35:05;;;;;;;23.17;11.63;;;6.50;93.30;;;;;;4998291;28;20088;-84
2020/12/16 06:44:17;;;;;;;17.23;11.00;;;6.30;93.40;;;;;;5016568;28;20029;-87
2020/12/16 06:46:50;;;;;;;14.82;11.13;;;6.30;93.30;;;;;;4999159;28;20475;-85
2020/12/16 06:49:26;;;;;;;15.77;10.77;;;6.30;93.30;;;;;;4999230;28;20022;-86
2020/12/16 06:55:31;;;;;;;14.07;10.20;;;6.20;93.30;;;;;;5016352;28;20089;-87
2020/12/16 06:58:11;;;;;;;15.60;10.90;;;6.10;93.20;;;;;;4965190;28;20038;-86
2020/12/16 07:01:16;;;;;;;13.05;11.27;;;6.10;93.20;;;;;;4962650;28;20145;-86
2020/12/16 07:03:43;;;;;;;12.85;11.30;;;6.10;93.20;;;;;;4993749;28;20040;-85
2020/12/16 07:06:28;;;;;;;14.00;11.43;;;6.10;93.20;;;;;;4992626;28;20133;-85
2020/12/16 07:09:15;;;;;;;14.82;10.88;;;6.00;93.20;;;;;;4980179;28;20076;-86
2020/12/16 07:14:37;;;;;;;13.25;10.63;;;6.00;93.20;;;;;;4996751;28;20046;-86
2020/12/16 07:17:22;;;;;;;14.15;10.60;;;6.00;93.20;;;;;;4983576;28;20026;-85
2020/12/16 07:23:02;;;;;;;11.88;10.05;;;6.00;93.20;;;;;;4974700;28;20038;-85
2020/12/16 07:25:37;;;;;;;13.13;10.70;;;5.90;93.20;;;;;;4957596;28;20461;-86
2020/12/16 07:28:06;;;;;;;13.55;10.80;;;5.90;93.20;;;;;;4942173;28;20381;-85
2020/12/16 07:30:52;;;;;;;12.00;9.70;;;5.90;93.30;;;;;;4947849;29;20104;-85
2020/12/16 07:33:21;;;;;;;14.27;10.10;;;6.00;93.30;;;;;;4924543;28;20524;-85
2020/12/16 07:35:51;;;;;;;13.43;10.15;;;5.90;93.30;;;;;;4951244;28;20039;-85
2020/12/16 07:38:30;;;;;;;12.02;9.93;;;6.00;93.30;;;;;;4957525;28;20074;-86
2020/12/16 07:40:56;;;;;;;12.70;9.95;;;6.00;93.30;;;;;;4938644;29;20065;-86
2020/12/16 07:43:31;;;;;;;12.18;10.18;;;5.90;93.30;;;;;;4959370;28;20095;-86
2020/12/16 07:46:10;;;;;;;15.30;11.95;;;5.90;93.30;;;;;;4969656;28;20098;-85
2020/12/16 07:48:36;;;;;;;15.20;10.88;;;5.90;93.30;;;;;;5013062;28;20080;-86
2020/12/16 07:51:22;;;;;;;14.68;11.60;;;5.90;93.30;;;;;;4990722;28;20029;-86
2020/12/16 07:53:53;;;;;;;12.77;10.20;;;5.90;93.40;;;;;;4995684;28;20049;-86
2020/12/16 07:56:22;;;;;;;13.10;10.48;;;5.90;93.40;;;;;;4988191;28;20446;-88
2020/12/16 07:59:16;;;;;;;13.88;11.00;;;5.90;93.40;;;;;;4991004;28;20026;-85
2020/12/16 08:02:47;;;;;;;;;;;;;;;;;;;;;
2020/12/16 08:05:26;;;;;;;13.98;10.80;;;5.90;93.50;;;;;;4986687;28;20049;-87
2020/12/16 08:07:53;;;;;;;13.23;10.40;;;5.90;93.50;;;;;;4977313;28;20038;-87
2020/12/16 08:10:24;;;;;;;13.68;10.65;;;5.90;93.50;;;;;;4994517;28;20021;-90
2020/12/16 08:13:21;;;;;;;14.05;10.45;;;6.00;93.60;;;;;;4972166;28;20044;-86
2020/12/16 08:16:15;;;;;;;12.52;10.20;;;6.00;93.50;;;;;;4980747;28;20063;-86
2020/12/16 08:19:03;;;;;;;15.45;9.75;;;6.00;93.60;;;;;;5007237;28;20030;-86
2020/12/16 08:21:39;;;;;;;12.13;9.60;;;6.00;93.60;;;;;;4982776;28;20042;-85
2020/12/16 08:24:16;;;;;;;12.13;9.93;;;6.00;93.60;;;;;;4975520;28;20033;-86
2020/12/16 08:27:09;;;;;;;13.82;9.95;;;6.00;93.60;;;;;;4976447;28;20037;-87
2020/12/16 08:32:51;;;;;;;13.85;9.95;;;6.00;93.60;;;;;;5004004;28;20044;-86
2020/12/16 08:35:22;;;;;;;14.13;9.93;;;6.00;93.60;;;;;;4995110;28;20387;-86
2020/12/16 08:38:25;;;;;;;;;;;;;;;;;;;;;
2020/12/16 08:41:03;;;;;;;16.23;11.60;;;6.00;93.70;;;;;;5000264;28;20042;-86
2020/12/16 08:43:37;;;;;;;14.45;10.82;;;6.00;93.70;;;;;;4971277;28;20025;-86
2020/12/16 08:46:06;;;;;;;13.73;9.82;;;6.10;93.80;;;;;;4991639;28;20045;-86
2020/12/16 08:49:00;;;;;;;12.13;9.25;;;6.10;93.70;;;;;;5010159;28;20026;-86
2020/12/16 08:51:46;;;;;;;13.90;10.05;;;6.10;93.80;;;;;;4978324;28;20034;-87
2020/12/16 08:54:17;;;;;;;11.63;9.38;;;6.10;93.80;;;;;;5005179;28;20038;-85
2020/12/16 08:56:56;;;;;;;12.23;9.20;;;6.10;93.80;;;;;;5018738;28;20196;-87
2020/12/16 08:59:33;;;;;;;13.27;9.30;;;6.20;93.80;;;;;;4991213;28;20062;-89
2020/12/16 09:02:14;;;;;;;;;;;;;;;;;;;;;
2020/12/16 09:05:16;;;;;;;;;;;;;;;;;;;;;
2020/12/16 09:07:53;;;;;;;;;;;6.30;93.90;;;;;;4982534;28;20080;-86
2020/12/16 09:10:40;;;;;;;;;;;;;;;;;;;;;
2020/12/16 09:13:07;;;;;;;13.38;9.68;;;6.30;93.90;;;;;;5007490;28;20037;-89
2020/12/16 09:15:57;;;;;;;11.15;9.10;;;6.30;93.90;;;;;;4985329;28;20034;-86
2020/12/16 09:22:15;;;;;;;;;;;;;;;;;;;;;
2020/12/16 09:24:58;;;;;;;14.73;9.65;;;6.50;94.00;;;;;;5013281;28;20029;-86
2020/12/16 09:27:32;;;;;;;13.20;9.48;;;6.50;93.90;;;;;;5002985;28;20034;-88
2020/12/16 09:30:12;;;;;;;12.82;9.70;;;6.50;94.00;;;;;;4979206;28;20125;-88
2020/12/16 09:33:03;;;;;;;12.73;9.55;;;6.50;94.00;;;;;;4973123;28;20410;-87
2020/12/16 09:35:46;;;;;;;12.65;9.23;;;6.60;94.00;;;;;;4951998;28;20050;-86
2020/12/16 09:39:12;;;;;;;;;;;;;;;;;;;;;
2020/12/16 09:42:17;;;;;;;11.23;9.18;;;6.70;94.00;;;;;;4950484;28;20046;-86
2020/12/16 09:48:07;;;;;;;13.25;9.57;;;6.70;94.00;;;;;;4963696;28;20491;-86
2020/12/16 09:55:26;;;;;;;;;;;;;;;;;;;;;
2020/12/16 09:58:13;;;;;;;;;;;;;;;;;;;;;
2020/12/16 10:05:21;;;;;;;;;;;;;;;;;;;;;
2020/12/16 10:08:28;;;;;;;17.17;10.70;;;7.00;94.00;;;;;;4964771;28;20038;-86
2020/12/16 10:14:11;;;;;;;12.27;8.95;;;7.20;94.10;;;;;;4966438;28;20035;-88
2020/12/16 10:17:09;;;;;;;12.85;9.45;;;7.20;94.10;;;;;;4952242;28;20078;-88
2020/12/16 10:20:11;;;;;;;11.18;9.13;;;7.20;94.10;;;;;;4977691;28;20089;-88
2020/12/16 10:23:07;;;;;;;11.07;8.35;;;7.30;94.10;;;;;;4940344;28;20070;-87
2020/12/16 10:25:59;;;;;;;11.60;8.60;;;7.30;94.10;;;;;;4974883;28;20554;-87
2020/12/16 10:28:29;;;;;;;13.80;9.52;;;7.40;94.10;;;;;;4958650;28;20138;-86
2020/12/16 10:31:30;;;;;;;;;;;;;;;;;;;;;
2020/12/16 10:37:28;;;;;;;10.80;8.45;;;7.50;94.10;;;;;;4974404;28;20126;-87
2020/12/16 10:40:14;;;;;;;;;;;;;;;;;;;;;
2020/12/16 10:42:41;;;;;;;10.40;8.30;;;7.50;94.20;;;;;;4977146;28;20031;-87
2020/12/16 10:49:28;;;;;;;10.00;7.95;;;7.70;94.20;;;;;;4902438;29;20513;-89
2020/12/16 10:52:38;;;;;;;;;;;;;;;;;;;;;
2020/12/16 10:59:13;;;;;;;10.45;7.80;;;7.90;94.20;;;;;;4990748;28;20025;-86
2020/12/16 11:02:27;;;;;;;;;;;;;;;;;;;;;
2020/12/16 11:04:59;;;;;;;12.60;8.32;;;8.00;94.20;;;;;;4994806;28;20456;-87
2020/12/16 11:07:36;;;;;;;11.75;8.90;;;8.00;94.20;;;;;;4987054;28;20026;-86
2020/12/16 11:10:28;;;;;;;12.13;9.23;;;8.10;94.20;;;;;;4997401;28;20030;-85
2020/12/16 11:13:39;;;;;;;;;;;;;;;;;;;;;
2020/12/16 11:16:59;;;;;;;;;;;;;;;;;;;;;
2020/12/16 11:19:30;;;;;;;11.98;9.85;;;8.20;94.20;;;;;;4903302;29;20032;-88
2020/12/16 11:22:48;;;;;;;;;;;;;;;;;;;;;
2020/12/16 11:26:01;;;;;;;12.50;9.88;;;8.20;94.10;;;;;;4856538;29;20045;-88
2020/12/16 11:28:51;;;;;;;;;;;8.30;94.20;;;;;;4881306;29;20028;-87
2020/12/16 11:31:23;;;;;;;11.07;8.07;;;8.30;94.10;;;;;;4974586;28;20380;-87
2020/12/16 11:37:21;;;;;;;10.73;7.93;;;8.30;94.10;;;;;;4907073;29;20398;-87
2020/12/16 11:40:01;;;;;;;11.18;8.10;;;8.40;94.20;;;;;;4971449;28;20067;-85
2020/12/16 11:42:47;;;;;;;11.48;8.90;;;8.40;94.20;;;;;;4955213;28;20129;-88
2020/12/16 11:45:46;;;;;;;10.27;7.65;;;8.40;94.10;;;;;;4954103;28;20048;-89
2020/12/16 11:48:45;;;;;;;9.30;8.30;;;8.40;94.10;;;;;;4958653;28;20082;-87
2020/12/16 11:51:14;;;;;;;11.73;8.57;;;8.50;94.10;;;;;;4935122;28;20035;-87
2020/12/16 11:53:40;;;;;;;10.38;8.13;;;8.50;94.10;;;;;;4957101;28;20496;-87
2020/12/16 11:56:31;;;;;;;11.52;8.10;;;8.50;94.10;;;;;;4951694;28;20163;-88
2020/12/16 11:59:12;;;;;;;9.30;8.15;;;8.60;94.10;;;;;;4945265;28;20027;-87
2020/12/16 12:04:57;;;;;;;;;;;;;;;;;;;;;
2020/12/16 12:08:05;;;;;;;;;;;;;;;;;;;;;
2020/12/16 12:14:14;;;;;;;11.75;9.55;;;8.70;94.10;;;;;;4958651;28;20121;-88
2020/12/16 12:16:45;;;;;;;13.90;10.25;;;8.70;94.10;;;;;;4970461;28;20046;-87
2020/12/16 12:19:22;;;;;;;11.02;8.68;;;8.80;94.10;;;;;;5009533;28;20037;-87
2020/12/16 12:22:19;;;;;;;12.85;9.82;;;8.80;94.10;;;;;;4995350;28;20092;-87
2020/12/16 12:28:07;;;;;;;11.43;9.30;;;8.80;94.00;;;;;;4989546;28;20037;-88
2020/12/16 12:30:43;;;;;;;;;;;;;;;;;;;;;
2020/12/16 12:33:12;;;;;;;11.20;8.68;;;8.80;94.00;;;;;;5001203;28;20041;-86
2020/12/16 12:36:11;;;;;;;;;;;;;;;;;;;;;
2020/12/16 12:42:12;;;;;;;10.80;8.90;;;8.90;94.00;;;;;;5003046;28;20129;-87
2020/12/16 12:44:46;;;;;;;13.55;8.63;;;8.90;94.00;;;;;;4978332;28;20046;-91
2020/12/16 12:47:15;;;;;;;10.35;8.63;;;8.90;94.00;;;;;;5000167;28;20026;-85
2020/12/16 12:53:08;;;;;;;11.50;8.88;;;8.90;94.00;;;;;;4973994;28;20030;-87
2020/12/16 12:56:06;;;;;;;11.30;8.50;;;8.90;94.00;;;;;;4982020;28;20104;-88
2020/12/16 12:58:57;;;;;;;12.23;9.10;;;9.00;94.00;;;;;;4987811;28;20101;-86
2020/12/16 13:01:38;;;;;;;11.68;8.63;;;9.00;94.00;;;;;;4974011;28;20116;-86
2020/12/16 13:04:14;;;;;;;11.18;9.43;;;9.00;94.00;;;;;;4996021;28;20063;-88
2020/12/16 13:07:12;;;;;;;;;;;;;;;;;;;;;
2020/12/16 13:10:04;;;;;;;;;;;;;;;;;;;;;
2020/12/16 13:15:47;;;;;;;13.60;10.90;;;9.00;94.00;;;;;;4994808;28;20049;-85
2020/12/16 13:18:39;;;;;;;14.02;10.55;;;9.10;94.00;;;;;;4972055;28;20368;-85
2020/12/16 13:21:24;;;;;;;14.73;9.98;;;9.00;94.00;;;;;;5004216;28;20539;-85
2020/12/16 13:23:53;;;;;;;11.88;9.73;;;9.10;94.00;;;;;;4972440;28;20041;-87
2020/12/16 13:26:19;;;;;;;13.88;10.35;;;9.10;94.00;;;;;;4990785;28;20034;-87
2020/12/16 13:31:39;;;;;;;14.30;9.50;;;9.10;94.00;;;;;;4991500;28;20046;-85
2020/12/16 13:34:14;;;;;;;14.18;11.05;;;9.10;94.00;;;;;;4989269;28;20060;-86
2020/12/16 13:36:45;;;;;;;18.10;12.82;;;9.10;93.90;;;;;;4986885;28;20062;-86
2020/12/16 13:39:14;;;;;;;15.00;11.15;;;9.10;93.90;;;;;;4983134;28;20034;-85
2020/12/16 13:41:55;;;;;;;15.70;10.60;;;9.10;93.90;;;;;;4983818;28;20045;-85
2020/12/16 13:44:40;;;;;;;15.18;11.02;;;9.10;93.90;;;;;;4971776;28;20034;-85
2020/12/16 13:47:12;;;;;;;14.10;9.93;;;9.10;93.90;;;;;;4987922;28;20031;-86
2020/12/16 13:49:44;;;;;;;14.40;10.82;;;9.10;93.90;;;;;;4967732;28;20030;-87
2020/12/16 13:52:22;;;;;;;;;;;;;;;;;;;;;
2020/12/16 13:54:56;;;;;;;14.38;10.57;;;9.10;93.90;;;;;;5008031;28;20030;-85
2020/12/16 13:57:25;;;;;;;15.18;11.43;;;9.10;93.90;;;;;;4988689;28;20034;-86
2020/12/16 13:59:53;;;;;;;13.77;10.43;;;9.20;94.00;;;;;;4972438;28;20030;-85
2020/12/16 14:02:21;;;;;;;15.65;11.70;;;9.20;93.90;;;;;;4989971;28;20074;-86
2020/12/16 14:04:52;;;;;;;15.65;12.38;;;9.20;93.90;;;;;;4987750;28;20040;-88
2020/12/16 14:07:21;;;;;;;16.20;12.20;;;9.20;93.90;;;;;;4979329;28;20081;-87
2020/12/16 14:09:50;;;;;;;16.50;13.20;;;9.20;93.90;;;;;;4993938;28;20638;-85
2020/12/16 14:12:32;;;;;;;18.52;14.13;;;9.20;93.90;;;;;;4977306;28;20034;-86
2020/12/16 14:15:52;;;;;;;18.92;14.43;;;9.20;93.90;;;;;;4987019;28;20037;-87
2020/12/16 14:21:39;;;;;;;21.10;15.10;;;9.20;93.90;;;;;;4994057;28;20041;-85
2020/12/16 14:24:14;;;;;;;22.23;17.52;;;9.20;93.90;;;;;;5001462;28;20033;-86
2020/12/16 14:26:47;;;;;;;21.27;16.92;;;9.20;93.90;;;;;;4982780;28;20041;-88
2020/12/16 14:29:30;;;;;;;20.42;16.08;;;9.20;93.90;;;;;;4984207;28;20537;-86
2020/12/16 14:31:56;;;;;;;22.23;16.63;;;9.30;93.90;;;;;;4982438;28;20069;-87
2020/12/16 14:34:33;;;;;;;21.55;16.98;;;9.30;93.90;;;;;;4987078;28;20428;-86
2020/12/16 14:37:22;;;;;;;23.70;17.80;;;9.20;93.90;;;;;;4980965;28;20472;-86
2020/12/16 14:39:58;;;;;;;24.95;17.50;;;9.30;93.90;;;;;;5006112;28;20044;-87
2020/12/16 14:42:27;;;;;;;25.88;19.85;;;9.20;93.90;;;;;;4989339;28;20068;-85
2020/12/16 14:44:56;;;;;;;25.45;17.90;;;9.20;94.00;;;;;;4997759;28;20335;-86
2020/12/16 14:47:40;;;;;;;;;;;;;;;;;;;;;
2020/12/16 14:50:18;;;;;;;21.60;16.48;;;9.20;93.90;;;;;;4999286;28;20034;-85
2020/12/16 14:52:53;;;;;;;20.73;15.40;;;9.30;94.00;;;;;;4988979;28;20022;-85
2020/12/16 14:55:33;;;;;;;20.02;15.27;;;9.20;93.90;;;;;;4997862;28;20061;-86
2020/12/16 14:58:24;;;;;;;19.10;15.00;;;9.20;94.00;;;;;;4985507;28;20027;-86
2020/12/16 15:01:03;;;;;;;;;;;;;;;;;;;;;
2020/12/16 15:03:32;;;;;;;22.17;17.40;;;9.20;94.00;;;;;;5008738;28;20026;-85
2020/12/16 15:06:57;;;;;;;;;;;;;;;;;;;;;
2020/12/16 15:10:21;;;;;;;;;;;;;;;;;;;;;
2020/12/16 15:16:46;;;;;;;22.42;17.10;;;9.30;94.00;;;;;;4978717;28;20049;-86
2020/12/16 15:26:32;;;;;;;;;;;;;;;;;;;;;
2020/12/16 15:29:48;;;;;;;;;;;;;;;;;;;;;
2020/12/16 15:32:50;;;;;;;;;;;;;;;;;;;;;
2020/12/16 15:38:54;;;;;;;20.05;15.50;;;9.30;94.00;;;;;;5003407;28;20045;-87